Time;durP1;ratioP1;P1;durP2;ratioP2;P2;SDS_P1;SDS_P2;PMS_P1;PMS_P2;Temp;Humidity;BMP_temperature;BMP_pressure;BME280_temperature;BME280_humidity;BME280_pressure;Samples;Min_cycle;Max_cycle;Signal;HPM_P1;HPM_P2
2022/11/02 00:03:00;;;;;;;;;;;;;;;13.54;71.88;100992.00;5428733;32;34156;-74
2022/11/02 00:06:03;;;;;;;;;;;;;;;13.51;71.93;100984.19;5426576;32;34172;-73
2022/11/02 00:09:04;;;;;;;;;;;;;;;12.76;74.74;100989.00;5433165;32;34338;-74
2022/11/02 00:12:06;;;;;;;;;;;;;;;13.18;73.31;100988.19;5422572;32;34365;-64
2022/11/02 00:15:08;;;;;;;;;;;;;;;13.22;73.23;100995.12;5420269;32;34655;-72
2022/11/02 00:18:10;;;;;;;;;;;;;;;13.87;70.25;100993.28;5413765;32;47496;-73
2022/11/02 00:21:12;;;;;;;;;;;;;;;13.95;70.25;100986.75;5418599;32;35021;-72
2022/11/02 00:24:14;;;;;;;;;;;;;;;13.93;70.06;100979.81;5417558;32;34169;-63
2022/11/02 00:27:16;;;;;;;;;;;;;;;13.93;68.96;100991.25;5375902;32;34984;-64
2022/11/02 00:30:18;;;;;;;;;;;;;;;13.73;70.42;101004.44;5424715;32;34176;-64
2022/11/02 00:33:19;;;;;;;;;;;;;;;13.80;69.32;101006.75;5438411;32;34979;-63
2022/11/02 00:36:23;;;;;;;;;;;;;;;13.17;71.86;100991.75;5411470;32;35396;-73
2022/11/02 00:39:25;;;;;;;;;;;;;;;13.87;70.44;100994.16;5430545;32;34579;-64
2022/11/02 00:42:27;;;;;;;;;;;;;;;12.90;74.21;100994.56;5434144;32;34334;-73
2022/11/02 00:45:29;;;;;;;;;;;;;;;13.99;69.62;100985.69;5433127;32;35310;-65
2022/11/02 00:48:31;;;;;;;;;;;;;;;13.87;70.70;100985.38;5414136;32;35327;-64
2022/11/02 00:51:32;;;;;;;;;;;;;;;14.31;68.52;100994.84;5419992;32;34252;-71
2022/11/02 00:54:34;;;;;;;;;;;;;;;13.53;71.66;101000.88;5427392;32;34501;-73
2022/11/02 00:57:37;;;;;;;;;;;;;;;13.45;72.06;101002.94;5432814;32;33995;-65
2022/11/02 01:00:39;;;;;;;;;;;;;;;13.64;70.66;100991.62;5438867;32;43345;-71
2022/11/02 01:03:41;;;;;;;;;;;;;;;13.23;73.48;100987.13;5429670;32;34619;-73
2022/11/02 01:06:43;;;;;;;;;;;;;;;13.55;71.91;100987.59;5445909;32;34909;-73
2022/11/02 01:09:44;;;;;;;;;;;;;;;13.47;72.36;100989.69;5401173;32;35671;-72
2022/11/02 01:12:46;;;;;;;;;;;;;;;13.39;73.21;100982.06;5420577;32;34364;-72
2022/11/02 01:15:48;;;;;;;;;;;;;;;14.49;68.30;100974.69;5420399;32;35113;-74
2022/11/02 01:18:51;;;;;;;;;;;;;;;14.00;70.46;100978.63;5427852;32;34781;-73
2022/11/02 01:21:53;;;;;;;;;;;;;;;14.57;67.65;100985.75;5433016;32;35208;-64
2022/11/02 01:24:55;;;;;;;;;;;;;;;14.30;68.97;100984.34;5416165;32;34750;-71
2022/11/02 01:27:57;;;;;;;;;;;;;;;14.49;68.10;100976.44;5434942;32;34642;-73
2022/11/02 01:30:59;;;;;;;;;;;;;;;14.13;69.29;100982.44;5410596;32;34624;-73
2022/11/02 01:34:00;;;;;;;;;;;;;;;13.54;72.52;100988.50;5406487;32;35403;-65
2022/11/02 01:37:02;;;;;;;;;;;;;;;13.60;71.12;100976.84;5440159;32;34865;-73
2022/11/02 01:40:04;;;;;;;;;;;;;;;13.88;71.04;100969.44;5423669;32;34781;-63
2022/11/02 01:43:19;;;;;;;;;;;;;;;13.87;71.44;100967.72;5440508;32;35172;-64
2022/11/02 01:46:21;;;;;;;;;;;;;;;13.95;70.57;100962.09;5412162;32;35282;-73
2022/11/02 01:49:23;;;;;;;;;;;;;;;13.90;71.31;100951.72;5440011;32;36124;-74
2022/11/02 01:52:27;;;;;;;;;;;;;;;13.83;71.77;100953.78;5416707;32;35459;-74
2022/11/02 01:55:30;;;;;;;;;;;;;;;14.77;67.25;100965.44;5420693;32;34810;-73
2022/11/02 01:58:34;;;;;;;;;;;;;;;13.83;70.59;100963.50;5418780;32;35339;-73
2022/11/02 02:01:35;;;;;;;;;;;;;;;14.22;69.65;100962.66;5431361;32;35364;-65
2022/11/02 02:04:37;;;;;;;;;;;;;;;14.25;69.79;100968.66;5436944;32;35889;-64
2022/11/02 02:07:39;;;;;;;;;;;;;;;14.77;67.26;100976.03;5410175;32;44825;-73
2022/11/02 02:10:41;;;;;;;;;;;;;;;13.91;70.12;100973.72;5429188;32;34556;-65
2022/11/02 02:13:43;;;;;;;;;;;;;;;14.02;71.04;100956.47;5433020;32;34295;-64
2022/11/02 02:16:45;;;;;;;;;;;;;;;13.30;73.84;100971.91;5427417;32;35256;-65
2022/11/02 02:19:50;;;;;;;;;;;;;;;13.22;74.12;100968.72;5439717;32;34677;-73
2022/11/02 02:23:11;;;;;;;;;;;;;;;13.93;72.59;100967.47;5410898;32;34811;-76
2022/11/02 02:26:32;;;;;;;;;;;;;;;13.39;73.79;100982.06;5410860;32;46970;-64
2022/11/02 02:29:43;;;;;;;;;;;;;;;13.97;71.68;100974.31;5423653;32;35479;-64
2022/11/02 02:32:48;;;;;;;;;;;;;;;13.93;72.18;100966.59;5429532;32;44536;-64
2022/11/02 02:35:54;;;;;;;;;;;;;;;14.36;70.16;100968.16;5440696;32;35053;-73
2022/11/02 02:38:58;;;;;;;;;;;;;;;14.22;70.13;100967.94;5404072;32;34247;-64
2022/11/02 02:42:10;;;;;;;;;;;;;;;14.47;69.16;100978.31;5418139;32;34591;-73
2022/11/02 02:45:19;;;;;;;;;;;;;;;13.67;72.91;100975.66;5424533;32;45301;-73
2022/11/02 02:48:22;;;;;;;;;;;;;;;14.37;69.86;100975.19;5403324;32;34701;-65
2022/11/02 02:51:27;;;;;;;;;;;;;;;14.92;67.18;100985.87;5440449;32;35037;-63
2022/11/02 02:54:30;;;;;;;;;;;;;;;14.96;66.86;100981.31;5403646;32;34053;-72
2022/11/02 02:57:32;;;;;;;;;;;;;;;14.29;69.20;100980.81;5435885;32;34264;-72
2022/11/02 03:00:34;;;;;;;;;;;;;;;14.11;70.64;100981.66;5399250;32;35262;-73
2022/11/02 03:03:36;;;;;;;;;;;;;;;13.69;72.64;100993.16;5409884;32;35421;-72
2022/11/02 03:06:38;;;;;;;;;;;;;;;13.86;72.14;100987.16;5389616;32;34839;-72
2022/11/02 03:09:43;;;;;;;;;;;;;;;14.35;70.55;100996.41;5418904;32;46996;-72
2022/11/02 03:12:55;;;;;;;;;;;;;;;14.23;70.44;100996.09;5428887;32;34228;-70
2022/11/02 03:15:58;;;;;;;;;;;;;;;14.34;69.23;101007.06;5409826;32;34840;-63
2022/11/02 03:19:15;;;;;;;;;;;;;;;14.17;70.72;101009.56;5430516;32;35285;-72
2022/11/02 03:22:17;;;;;;;;;;;;;;;14.61;68.23;101008.47;5419946;32;44934;-63
2022/11/02 03:25:42;;;;;;;;;;;;;;;14.02;70.75;101009.31;5420428;32;35054;-64
2022/11/02 03:28:56;;;;;;;;;;;;;;;14.49;68.80;101011.72;5425776;32;46675;-74
2022/11/02 03:32:24;;;;;;;;;;;;;;;14.32;69.65;101022.12;5423366;32;34444;-70
2022/11/02 03:35:34;;;;;;;;;;;;;;;14.12;70.81;101020.37;5427232;32;34241;-65
2022/11/02 03:38:42;;;;;;;;;;;;;;;13.88;72.44;101035.50;5398052;32;35138;-63
2022/11/02 03:41:44;;;;;;;;;;;;;;;14.45;69.90;101041.81;5434123;32;46243;-63
2022/11/02 03:44:46;;;;;;;;;;;;;;;14.31;69.36;101042.44;5436578;32;34666;-72
2022/11/02 03:47:49;;;;;;;;;;;;;;;13.95;71.63;101058.09;5414243;32;34782;-64
2022/11/02 03:50:51;;;;;;;;;;;;;;;13.36;73.44;101052.62;5431534;32;35045;-64
2022/11/02 03:53:58;;;;;;;;;;;;;;;13.05;75.98;101045.88;5411126;32;35188;-74
2022/11/02 03:57:00;;;;;;;;;;;;;;;13.66;73.94;101048.75;5425021;32;35006;-64
2022/11/02 04:00:11;;;;;;;;;;;;;;;12.97;76.74;101043.56;5424719;32;34411;-73
2022/11/02 04:03:13;;;;;;;;;;;;;;;13.27;75.84;101038.91;5423453;32;44834;-73
2022/11/02 04:06:15;;;;;;;;;;;;;;;13.63;73.55;101032.16;5439464;32;35351;-64
2022/11/02 04:09:17;;;;;;;;;;;;;;;13.31;74.56;101026.41;5423113;32;35327;-64
2022/11/02 04:15:39;;;;;;;;;;;;;;;13.79;73.47;101012.97;5424590;32;48097;-73
2022/11/02 04:25:22;;;;;;;;;;;;;;;14.36;70.94;101043.09;5401594;32;34577;-65
2022/11/02 04:28:24;;;;;;;;;;;;;;;15.06;67.51;101041.66;5422848;32;35476;-66
2022/11/02 04:31:26;;;;;;;;;;;;;;;15.21;66.99;101052.47;5419998;32;34835;-65
2022/11/02 04:34:28;;;;;;;;;;;;;;;15.25;66.83;101043.44;5399455;32;35335;-65
2022/11/02 04:41:40;;;;;;;;;;;;;;;15.02;68.03;101063.94;5415613;32;35539;-65
2022/11/02 04:44:16;;;;;;;;;;;;;;;14.66;70.08;101065.62;5441339;32;44824;-64
2022/11/02 04:47:18;;;;;;;;;;;;;;;14.10;72.81;101064.50;5411193;32;35044;-73
2022/11/02 04:50:19;;;;;;;;;;;;;;;14.35;72.36;101067.78;5412100;32;34761;-64
2022/11/02 04:53:21;;;;;;;;;;;;;;;14.25;72.58;101068.28;5428145;32;34804;-73
2022/11/02 04:56:24;;;;;;;;;;;;;;;14.49;71.61;101064.59;5413110;32;34911;-74
2022/11/02 04:59:25;;;;;;;;;;;;;;;14.71;71.08;101069.78;5434202;32;34654;-64
2022/11/02 05:02:27;;;;;;;;;;;;;;;14.55;71.60;101074.03;5431838;32;34054;-74
2022/11/02 05:05:29;;;;;;;;;;;;;;;14.51;72.27;101075.09;5440917;32;34057;-64
2022/11/02 05:08:31;;;;;;;;;;;;;;;14.81;69.26;101072.84;5429886;32;34954;-64
2022/11/02 05:11:33;;;;;;;;;;;;;;;14.69;71.05;101074.28;5408968;32;34252;-64
2022/11/02 05:14:35;;;;;;;;;;;;;;;14.73;71.54;101077.63;5430844;32;34213;-73
2022/11/02 05:17:37;;;;;;;;;;;;;;;14.20;73.32;101080.84;5429431;32;34112;-66
2022/11/02 05:20:38;;;;;;;;;;;;;;;14.36;73.26;101079.22;5446285;32;47976;-71
2022/11/02 05:23:40;;;;;;;;;;;;;;;14.07;74.06;101081.34;5424938;32;35209;-64
2022/11/02 05:26:42;;;;;;;;;;;;;;;14.50;72.52;101066.31;5403864;32;34926;-63
2022/11/02 05:29:44;;;;;;;;;;;;;;;14.82;71.17;101069.28;5418229;32;35394;-64
2022/11/02 05:32:46;;;;;;;;;;;;;;;14.41;73.18;101074.59;5433663;32;34979;-64
2022/11/02 05:35:48;;;;;;;;;;;;;;;14.82;70.86;101077.22;5427203;32;35248;-64
2022/11/02 05:38:53;;;;;;;;;;;;;;;14.52;72.69;101082.97;5411024;32;34305;-64
2022/11/02 05:41:55;;;;;;;;;;;;;;;14.42;72.83;101093.97;5430226;32;34553;-73
2022/11/02 05:44:58;;;;;;;;;;;;;;;14.13;75.33;101101.37;5417318;32;34728;-64
2022/11/02 05:48:00;;;;;;;;;;;;;;;13.71;76.31;101101.37;5427870;32;34209;-74
2022/11/02 05:51:02;;;;;;;;;;;;;;;13.62;77.65;101097.34;5407281;32;34566;-74
2022/11/02 05:54:04;;;;;;;;;;;;;;;13.39;78.93;101092.09;5396272;32;35149;-72
2022/11/02 05:57:06;;;;;;;;;;;;;;;13.77;77.45;101095.84;5439429;32;34209;-72
2022/11/02 06:00:08;;;;;;;;;;;;;;;13.46;78.52;101083.00;5418114;32;35996;-72
2022/11/02 06:03:10;;;;;;;;;;;;;;;13.11;78.62;101081.75;5436107;32;44511;-74
2022/11/02 06:06:12;;;;;;;;;;;;;;;13.26;79.56;101089.94;5416550;32;35051;-74
2022/11/02 06:09:13;;;;;;;;;;;;;;;13.60;79.07;101090.41;5431033;32;35461;-64
2022/11/02 06:12:15;;;;;;;;;;;;;;;14.28;75.12;101081.34;5411394;32;35196;-64
2022/11/02 06:15:17;;;;;;;;;;;;;;;14.08;76.08;101088.34;5416018;32;35388;-74
2022/11/02 06:18:19;;;;;;;;;;;;;;;13.94;77.11;101089.88;5442323;32;35430;-65
2022/11/02 06:21:21;;;;;;;;;;;;;;;14.13;76.27;101087.31;5406948;32;34661;-64
2022/11/02 06:24:23;;;;;;;;;;;;;;;13.95;76.98;101091.59;5446109;32;35050;-73
2022/11/02 06:27:25;;;;;;;;;;;;;;;14.28;75.57;101089.28;5405711;32;34285;-64
2022/11/02 06:30:26;;;;;;;;;;;;;;;14.88;72.97;101087.53;5444004;32;35248;-74
2022/11/02 06:33:28;;;;;;;;;;;;;;;15.25;71.65;101083.16;5424421;32;34783;-71
2022/11/02 06:36:30;;;;;;;;;;;;;;;14.16;75.87;101077.44;5428297;32;34170;-80
2022/11/02 06:39:32;;;;;;;;;;;;;;;14.51;74.46;101075.97;5429952;32;35271;-70
2022/11/02 06:42:34;;;;;;;;;;;;;;;15.48;70.05;101084.72;5420559;32;33999;-66
2022/11/02 06:45:54;;;;;;;;;;;;;;;14.74;72.72;101088.16;5431076;32;34591;-64
2022/11/02 06:48:57;;;;;;;;;;;;;;;15.12;71.65;101083.72;5423306;32;34129;-64
2022/11/02 06:51:59;;;;;;;;;;;;;;;15.40;70.64;101095.69;5430186;32;35558;-59
2022/11/02 06:55:01;;;;;;;;;;;;;;;15.34;71.00;101098.63;5432854;32;34369;-66
2022/11/02 06:58:03;;;;;;;;;;;;;;;15.37;70.29;101099.31;5422527;32;34252;-60
2022/11/02 07:01:08;;;;;;;;;;;;;;;15.81;68.26;101108.75;5435723;32;35534;-61
2022/11/02 07:04:10;;;;;;;;;;;;;;;14.78;72.42;101115.34;5398040;32;47099;-65
2022/11/02 07:07:12;;;;;;;;;;;;;;;14.17;75.61;101121.50;5433929;32;34302;-59
2022/11/02 07:10:14;;;;;;;;;;;;;;;14.79;74.41;101115.25;5424525;32;35313;-68
2022/11/02 07:13:16;;;;;;;;;;;;;;;15.72;69.96;101114.50;5422133;32;34257;-64
2022/11/02 07:16:18;;;;;;;;;;;;;;;15.95;68.20;101108.91;5418907;32;34351;-61
2022/11/02 07:19:19;;;;;;;;;;;;;;;16.08;67.32;101110.00;5412400;32;34165;-64
2022/11/02 07:22:21;;;;;;;;;;;;;;;15.74;68.50;101108.19;5436876;32;33501;-64
2022/11/02 07:25:24;;;;;;;;;;;;;;;15.24;70.71;101107.94;5406641;32;34643;-65
2022/11/02 07:28:26;;;;;;;;;;;;;;;16.00;67.57;101108.69;5422246;32;35111;-64
2022/11/02 07:31:28;;;;;;;;;;;;;;;16.15;65.86;101116.72;5427935;32;35610;-71
2022/11/02 07:34:29;;;;;;;;;;;;;;;15.31;69.84;101109.34;5415011;32;34022;-63
2022/11/02 07:37:31;;;;;;;;;;;;;;;15.51;70.43;101106.59;5434193;32;35301;-68
2022/11/02 07:40:34;;;;;;;;;;;;;;;14.80;72.07;101101.09;5427947;32;34183;-67
2022/11/02 07:43:36;;;;;;;;;;;;;;;15.92;69.73;101117.03;5433689;32;34023;-68
2022/11/02 07:46:44;;;;;;;;;;;;;;;16.74;63.50;101126.06;5423019;32;44551;-73
2022/11/02 07:49:46;;;;;;;;;;;;;;;16.64;63.38;101123.94;5444007;32;35453;-60
2022/11/02 07:52:47;;;;;;;;;;;;;;;16.34;64.38;101126.38;5429566;32;35559;-63
2022/11/02 07:55:50;;;;;;;;;;;;;;;16.19;64.26;101122.72;5436418;32;34502;-66
2022/11/02 07:58:52;;;;;;;;;;;;;;;15.79;66.57;101126.53;5442914;32;35734;-64
2022/11/02 08:01:53;;;;;;;;;;;;;;;15.80;66.19;101117.63;5425375;32;35842;-63
2022/11/02 08:04:56;;;;;;;;;;;;;;;15.58;67.33;101125.72;5444708;32;35466;-65
2022/11/02 08:08:24;;;;;;;;;;;;;;;15.42;68.36;101115.00;5427503;32;34404;-67
2022/11/02 08:11:26;;;;;;;;;;;;;;;15.20;69.86;101117.81;5409675;32;34155;-67
2022/11/02 08:14:28;;;;;;;;;;;;;;;15.23;70.17;101122.97;5431906;32;34340;-63
2022/11/02 08:17:30;;;;;;;;;;;;;;;16.38;64.92;101115.56;5423095;32;34690;-66
2022/11/02 08:20:33;;;;;;;;;;;;;;;16.21;64.53;101119.06;5446117;32;34117;-63
2022/11/02 08:23:34;;;;;;;;;;;;;;;15.85;65.77;101119.13;5422510;32;34241;-64
2022/11/02 08:26:36;;;;;;;;;;;;;;;15.67;68.57;101115.56;5419365;32;35077;-66
2022/11/02 08:29:44;;;;;;;;;;;;;;;16.20;65.60;101125.31;5413434;32;44399;-66
2022/11/02 08:32:46;;;;;;;;;;;;;;;15.73;67.17;101125.03;5433400;32;35682;-66
2022/11/02 08:35:53;;;;;;;;;;;;;;;16.88;63.12;101121.84;5425110;32;34410;-62
2022/11/02 08:38:55;;;;;;;;;;;;;;;16.72;63.55;101112.00;5410380;32;36736;-62
2022/11/02 08:41:57;;;;;;;;;;;;;;;16.14;65.81;101117.66;5434314;32;34215;-67
2022/11/02 08:44:58;;;;;;;;;;;;;;;16.91;62.93;101119.00;5416776;32;34211;-66
2022/11/02 08:48:00;;;;;;;;;;;;;;;16.62;63.27;101108.13;5427037;32;35495;-63
2022/11/02 08:51:04;;;;;;;;;;;;;;;17.55;60.45;101108.31;5428601;32;34054;-65
2022/11/02 08:54:06;;;;;;;;;;;;;;;16.49;64.31;101112.34;5395068;32;34109;-64
2022/11/02 08:57:08;;;;;;;;;;;;;;;17.48;60.10;101109.62;5434544;32;34440;-64
2022/11/02 09:00:10;;;;;;;;;;;;;;;17.42;59.81;101109.09;5423223;32;44718;-66
2022/11/02 09:03:14;;;;;;;;;;;;;;;17.45;60.32;101116.88;5436414;32;34309;-67
2022/11/02 09:06:15;;;;;;;;;;;;;;;16.40;63.83;101120.78;5415411;32;34337;-69
2022/11/02 09:09:17;;;;;;;;;;;;;;;16.14;66.14;101109.69;5440753;32;35934;-67
2022/11/02 09:12:19;;;;;;;;;;;;;;;16.54;64.25;101104.97;5425200;32;34192;-68
2022/11/02 09:15:21;;;;;;;;;;;;;;;16.50;65.16;101101.66;5401651;32;837995;-68
2022/11/02 09:18:23;;;;;;;;;;;;;;;17.39;60.85;101094.22;5436844;32;35474;-62
2022/11/02 09:21:25;;;;;;;;;;;;;;;17.96;59.22;101090.94;5422910;32;35380;-67
2022/11/02 09:24:27;;;;;;;;;;;;;;;17.19;61.37;101103.25;5424647;32;34020;-65
2022/11/02 09:27:29;;;;;;;;;;;;;;;16.86;62.82;101103.31;5405990;32;34233;-64
2022/11/02 09:30:31;;;;;;;;;;;;;;;16.53;64.98;101101.47;5436514;32;35482;-67
2022/11/02 09:33:35;;;;;;;;;;;;;;;17.18;62.89;101103.34;5420221;32;35103;-64
2022/11/02 09:36:36;;;;;;;;;;;;;;;17.65;61.30;101095.38;5422052;32;32882;-62
2022/11/02 09:39:38;;;;;;;;;;;;;;;17.63;60.56;101101.72;5432439;32;35704;-68
2022/11/02 09:42:40;;;;;;;;;;;;;;;16.69;64.30;101101.53;5415875;32;44699;-68
2022/11/02 09:46:02;;;;;;;;;;;;;;;16.98;63.75;101088.50;5440181;32;34616;-70
2022/11/02 09:49:04;;;;;;;;;;;;;;;18.00;60.41;101089.84;5414714;32;33329;-70
2022/11/02 09:52:06;;;;;;;;;;;;;;;17.02;62.91;101090.94;5430176;32;34433;-60
2022/11/02 09:55:14;;;;;;;;;;;;;;;17.11;62.87;101089.56;5440918;32;36561;-70
2022/11/02 09:58:17;;;;;;;;;;;;;;;18.34;59.57;101086.88;5377437;32;44570;-64
2022/11/02 10:01:38;;;;;;;;;;;;;;;19.10;56.81;101085.78;5416552;32;34367;-62
2022/11/02 10:04:47;;;;;;;;;;;;;;;19.10;56.37;101077.78;5420271;32;44616;-69
2022/11/02 10:08:07;;;;;;;;;;;;;;;19.48;55.32;101084.16;5434039;32;34856;-66
2022/11/02 10:11:28;;;;;;;;;;;;;;;18.39;58.88;101079.47;5431627;32;45130;-67
2022/11/02 10:14:34;;;;;;;;;;;;;;;18.61;58.53;101073.72;5420870;32;35660;-66
2022/11/02 10:17:36;;;;;;;;;;;;;;;19.24;55.89;101080.41;5428219;32;37287;-67
2022/11/02 10:20:40;;;;;;;;;;;;;;;18.38;58.36;101075.09;5428180;32;34173;-66
2022/11/02 10:23:54;;;;;;;;;;;;;;;18.34;59.98;101078.88;5400451;32;44498;-67
2022/11/02 10:26:58;;;;;;;;;;;;;;;18.78;58.52;101079.81;5412701;32;35621;-71
2022/11/02 10:30:03;;;;;;;;;;;;;;;19.37;56.04;101076.00;5409434;32;34125;-70
2022/11/02 10:33:15;;;;;;;;;;;;;;;18.19;60.32;101082.47;5438364;32;34170;-70
2022/11/02 10:36:24;;;;;;;;;;;;;;;19.27;56.57;101063.38;5405427;32;44596;-70
2022/11/02 10:39:49;;;;;;;;;;;;;;;17.89;61.53;101077.16;5437154;32;35578;-70
2022/11/02 10:43:00;;;;;;;;;;;;;;;18.67;59.61;101080.47;5431659;32;33457;-65
2022/11/02 10:46:34;;;;;;;;;;;;;;;18.71;59.00;101071.34;5422026;32;34108;-73
2022/11/02 10:49:39;;;;;;;;;;;;;;;18.96;57.88;101062.69;5409623;32;35529;-66
2022/11/02 10:52:42;;;;;;;;;;;;;;;19.07;57.12;101067.34;5409721;32;44531;-68
2022/11/02 10:55:50;;;;;;;;;;;;;;;19.27;57.27;101066.91;5414198;32;35109;-64
2022/11/02 10:58:55;;;;;;;;;;;;;;;19.19;56.87;101069.19;5413397;32;34763;-68
2022/11/02 11:01:57;;;;;;;;;;;;;;;18.88;58.54;101067.66;5419758;32;35062;-71
2022/11/02 11:05:13;;;;;;;;;;;;;;;20.34;54.04;101062.41;5434627;32;35924;-70
2022/11/02 11:08:27;;;;;;;;;;;;;;;22.17;49.07;101054.41;5411084;32;46131;-68
2022/11/02 11:11:33;;;;;;;;;;;;;;;20.65;52.33;101054.97;5420614;32;35166;-65
2022/11/02 11:14:36;;;;;;;;;;;;;;;20.36;53.77;101049.81;5419676;32;34423;-72
2022/11/02 11:17:59;;;;;;;;;;;;;;;21.39;50.80;101048.72;5422303;32;34327;-69
2022/11/02 11:21:20;;;;;;;;;;;;;;;22.16;48.05;101050.03;5417947;32;34514;-64
2022/11/02 11:24:31;;;;;;;;;;;;;;;21.29;51.07;101058.38;5400771;32;35235;-67
2022/11/02 11:27:42;;;;;;;;;;;;;;;21.61;49.66;101056.00;5392789;32;35781;-69
2022/11/02 11:30:44;;;;;;;;;;;;;;;22.16;48.37;101051.84;5420275;32;44946;-67
2022/11/02 11:34:00;;;;;;;;;;;;;;;21.29;50.29;101055.69;5415526;32;35162;-64
2022/11/02 11:37:13;;;;;;;;;;;;;;;21.23;50.48;101056.12;5432679;32;34286;-63
2022/11/02 11:40:19;;;;;;;;;;;;;;;19.80;54.20;101057.22;5425780;32;44928;-69
2022/11/02 11:43:23;;;;;;;;;;;;;;;20.73;51.76;101060.59;5432235;32;34786;-69
2022/11/02 11:46:37;;;;;;;;;;;;;;;20.73;51.12;101064.13;5424080;32;34211;-63
2022/11/02 11:49:41;;;;;;;;;;;;;;;20.88;51.36;101054.19;5405369;32;46200;-63
2022/11/02 11:53:12;;;;;;;;;;;;;;;20.45;52.30;101059.88;5421701;32;34420;-66
2022/11/02 11:56:24;;;;;;;;;;;;;;;20.35;52.23;101050.78;5413133;32;44532;-68
2022/11/02 11:59:27;;;;;;;;;;;;;;;21.02;51.01;101051.38;5428910;32;34733;-70
2022/11/02 12:02:34;;;;;;;;;;;;;;;21.28;50.38;101053.97;5433897;32;34202;-67
2022/11/02 12:06:00;;;;;;;;;;;;;;;21.31;50.10;101049.25;5412376;32;44510;-63
2022/11/02 12:09:21;;;;;;;;;;;;;;;20.73;50.93;101025.88;5434710;32;35245;-69
2022/11/02 12:12:42;;;;;;;;;;;;;;;20.87;51.33;101019.56;5424065;32;36047;-71
2022/11/02 12:15:47;;;;;;;;;;;;;;;20.68;52.07;101018.22;5413555;32;43668;-68
2022/11/02 12:19:03;;;;;;;;;;;;;;;21.42;49.89;101015.53;5426820;32;36022;-63
2022/11/02 12:22:23;;;;;;;;;;;;;;;21.03;50.77;101010.31;5422412;32;33135;-68
2022/11/02 12:25:44;;;;;;;;;;;;;;;21.22;48.90;101012.50;5428100;32;34346;-69
2022/11/02 12:28:49;;;;;;;;;;;;;;;21.51;48.53;101002.34;5421258;32;44480;-71
2022/11/02 12:32:02;;;;;;;;;;;;;;;21.69;47.70;100996.56;5424604;32;34111;-70
2022/11/02 12:35:08;;;;;;;;;;;;;;;21.94;47.12;100987.50;5434158;32;35461;-71
2022/11/02 12:38:42;;;;;;;;;;;;;;;21.72;46.66;100994.53;5416124;32;35740;-71
2022/11/02 12:41:44;;;;;;;;;;;;;;;22.66;44.95;100985.38;5422964;32;44627;-85
2022/11/02 12:45:05;;;;;;;;;;;;;;;22.92;45.04;100986.00;5419546;32;37744;-73
2022/11/02 12:48:08;;;;;;;;;;;;;;;22.87;45.61;100977.50;5419045;32;35364;-72
2022/11/02 12:51:11;;;;;;;;;;;;;;;22.55;46.40;100982.75;5434953;32;44482;-71
2022/11/02 12:54:19;;;;;;;;;;;;;;;22.77;46.40;100979.19;5421625;32;34190;-70
2022/11/02 12:57:21;;;;;;;;;;;;;;;23.45;43.38;100978.06;5410486;32;34344;-72
2022/11/02 13:00:23;;;;;;;;;;;;;;;23.10;44.09;100973.78;5408876;32;34757;-69
2022/11/02 13:03:25;;;;;;;;;;;;;;;22.87;44.91;100970.31;5409545;32;35006;-72
2022/11/02 13:06:32;;;;;;;;;;;;;;;22.88;44.55;100979.19;5437322;32;34318;-73
2022/11/02 13:09:43;;;;;;;;;;;;;;;25.85;39.58;100965.66;5414343;32;34205;-71
2022/11/02 13:12:52;;;;;;;;;;;;;;;29.99;31.48;100956.28;5430447;32;35750;-75
2022/11/02 13:15:54;;;;;;;;;;;;;;;32.00;28.29;100953.62;5414378;32;35629;-75
2022/11/02 13:18:56;;;;;;;;;;;;;;;32.00;28.05;100956.34;5411604;32;35924;-70
2022/11/02 13:21:58;;;;;;;;;;;;;;;31.31;27.69;100952.88;5417906;32;34723;-70
2022/11/02 13:25:14;;;;;;;;;;;;;;;27.51;34.28;100966.53;5412949;32;35141;-74
2022/11/02 13:28:25;;;;;;;;;;;;;;;29.88;31.04;100949.34;5414041;32;46027;-70
2022/11/02 13:31:34;;;;;;;;;;;;;;;27.80;34.08;100960.88;5422144;32;34332;-69
2022/11/02 13:34:37;;;;;;;;;;;;;;;27.07;34.98;100958.34;5418291;32;34016;-72
2022/11/02 13:37:40;;;;;;;;;;;;;;;25.28;38.43;100966.50;5400802;32;44299;-71
2022/11/02 13:40:43;;;;;;;;;;;;;;;25.87;37.48;100962.81;5405737;32;35522;-70
2022/11/02 13:44:04;;;;;;;;;;;;;;;25.65;37.47;100974.72;5401556;32;36258;-73
2022/11/02 13:47:12;;;;;;;;;;;;;;;24.39;39.97;100960.19;5413120;32;33643;-70
2022/11/02 13:50:15;;;;;;;;;;;;;;;24.25;40.56;100972.94;5424476;32;44788;-74
2022/11/02 13:53:21;;;;;;;;;;;;;;;23.87;41.68;100973.56;5422522;32;34384;-71
2022/11/02 13:56:24;;;;;;;;;;;;;;;24.36;40.38;100977.44;5403543;32;35336;-73
2022/11/02 13:59:26;;;;;;;;;;;;;;;23.74;42.12;100976.47;5439069;32;34906;-71
2022/11/02 14:02:29;;;;;;;;;;;;;;;23.74;41.54;100981.81;5401615;32;34401;-72
2022/11/02 14:05:32;;;;;;;;;;;;;;;23.62;39.72;100982.87;5418276;32;35860;-72
2022/11/02 14:08:48;;;;;;;;;;;;;;;23.26;40.53;100983.25;5422616;32;34133;-73
2022/11/02 14:11:50;;;;;;;;;;;;;;;22.22;43.52;100983.56;5416396;32;34492;-71
2022/11/02 14:15:11;;;;;;;;;;;;;;;22.42;43.42;100989.06;5437713;32;34338;-71
2022/11/02 14:18:13;;;;;;;;;;;;;;;22.69;39.48;100991.38;5414371;32;44917;-69
2022/11/02 14:21:41;;;;;;;;;;;;;;;22.68;36.52;100986.16;5426050;32;33216;-71
2022/11/02 14:24:43;;;;;;;;;;;;;;;21.02;39.28;100994.41;5401597;32;44376;-74
2022/11/02 14:27:47;;;;;;;;;;;;;;;21.05;39.53;100988.81;5402010;32;34156;-67
2022/11/02 14:30:58;;;;;;;;;;;;;;;21.06;39.89;100987.88;5424123;32;34268;-67
2022/11/02 14:34:19;;;;;;;;;;;;;;;20.58;41.10;100989.59;5412233;32;35515;-68
2022/11/02 14:37:24;;;;;;;;;;;;;;;20.74;41.49;101000.91;5424409;32;34408;-67
2022/11/02 14:40:26;;;;;;;;;;;;;;;21.16;40.83;100993.37;5410863;32;34043;-70
2022/11/02 14:43:34;;;;;;;;;;;;;;;21.23;41.21;100995.50;5437402;32;34292;-70
2022/11/02 14:46:35;;;;;;;;;;;;;;;20.73;42.28;101001.84;5425687;32;34336;-70
2022/11/02 14:49:39;;;;;;;;;;;;;;;20.73;42.81;101010.72;5434772;32;33636;-72
2022/11/02 14:52:41;;;;;;;;;;;;;;;20.81;43.04;100997.69;5433103;32;45310;-72
2022/11/02 14:55:43;;;;;;;;;;;;;;;20.07;45.09;101001.12;5422682;32;34532;-72
2022/11/02 14:58:49;;;;;;;;;;;;;;;20.43;44.70;100997.72;5433917;32;36427;-71
2022/11/02 15:01:54;;;;;;;;;;;;;;;20.38;44.96;101004.34;5420448;32;35384;-71
2022/11/02 15:04:58;;;;;;;;;;;;;;;20.25;45.38;101002.53;5431827;32;33303;-71
2022/11/02 15:08:01;;;;;;;;;;;;;;;20.12;46.05;101003.47;5429294;32;34727;-71
2022/11/02 15:11:23;;;;;;;;;;;;;;;20.45;45.31;101006.50;5398153;32;34218;-77
2022/11/02 15:14:34;;;;;;;;;;;;;;;19.79;46.89;101012.84;5412708;32;34363;-75
2022/11/02 15:17:36;;;;;;;;;;;;;;;20.29;46.26;101008.50;5412582;32;34395;-67
2022/11/02 15:20:37;;;;;;;;;;;;;;;20.37;46.16;101006.16;5425234;32;33343;-67
2022/11/02 15:23:49;;;;;;;;;;;;;;;20.35;46.41;101010.75;5429586;32;46571;-69
2022/11/02 15:26:55;;;;;;;;;;;;;;;20.16;47.03;101011.19;5381429;32;34871;-71
2022/11/02 15:29:57;;;;;;;;;;;;;;;20.47;46.62;101009.87;5416745;32;34389;-70
2022/11/02 15:33:00;;;;;;;;;;;;;;;20.21;47.29;101022.34;5417544;32;34232;-66
2022/11/02 15:36:04;;;;;;;;;;;;;;;20.25;47.27;101025.69;5430724;32;34319;-78
2022/11/02 15:39:09;;;;;;;;;;;;;;;20.44;47.11;101026.09;5417806;32;35366;-80
2022/11/02 15:42:30;;;;;;;;;;;;;;;20.57;46.90;101015.44;5399001;32;44794;-67
2022/11/02 15:45:44;;;;;;;;;;;;;;;20.63;46.72;101017.69;5432204;32;35808;-67
2022/11/02 15:49:20;;;;;;;;;;;;;;;20.55;46.93;101026.25;5413968;32;34928;-78
2022/11/02 15:52:28;;;;;;;;;;;;;;;20.55;47.19;101033.41;5419556;32;35347;-78
2022/11/02 15:55:30;;;;;;;;;;;;;;;20.50;47.41;101028.38;5418566;32;35180;-67
2022/11/02 15:58:51;;;;;;;;;;;;;;;20.45;47.47;101027.00;5422270;32;34101;-67
2022/11/02 16:02:12;;;;;;;;;;;;;;;20.52;47.47;101036.28;5431507;32;34892;-66
2022/11/02 16:05:15;;;;;;;;;;;;;;;20.44;47.81;101026.09;5423739;32;46883;-66
2022/11/02 16:08:23;;;;;;;;;;;;;;;20.39;47.84;101027.37;5432724;32;34698;-77